CDT,Max TemperatureF,Mean TemperatureF,Min TemperatureF,Max Dew PointF,MeanDew PointF,Min DewpointF,Max Humidity, Mean Humidity, Min Humidity, Max Sea Level PressureIn, Mean Sea Level PressureIn, Min Sea Level PressureIn, Max VisibilityMiles, Mean VisibilityMiles, Min VisibilityMiles, Max Wind SpeedMPH, Mean Wind SpeedMPH, Max Gust SpeedMPH,PrecipitationIn, CloudCover, Events, WindDirDegrees
2013-6-1,75,68,61,67,62,57,97,84,65,29.75,29.71,29.66,10,9,3,20,12,31,0.17,6,Rain-Thunderstorm,208
2013-6-2,61,56,48,58,49,43,96,77,62,30.05,29.94,29.76,10,10,7,22,11,26,0.00,6,,333
2013-6-3,69,55,41,50,45,41,99,69,39,30.13,30.07,30.03,10,7,0,8,3,,0.00,2,Fog,194
2013-6-4,72,60,49,48,45,41,89,57,34,30.17,30.12,30.05,10,10,10,20,7,23,0.00,1,,124
2013-6-5,65,60,54,58,51,44,89,74,58,30.12,30.02,29.94,10,10,4,16,9,21,0.20,7,Rain,74
2013-6-6,68,60,53,57,53,48,91,80,64,29.96,29.91,29.88,10,10,5,13,8,17,0.14,6,Rain,64
2013-6-7,71,62,52,54,48,42,82,64,37,29.96,29.94,29.92,10,10,7,15,8,18,0.00,4,,41
2013-6-8,75,60,45,48,43,36,94,52,29,30.00,29.97,29.94,10,10,10,13,2,,0.00,0,,114
2013-6-9,83,70,57,62,53,40,91,58,32,30.00,29.89,29.81,10,9,4,24,12,30,0.27,4,Rain,144
2013-6-10,79,69,59,64,62,59,97,79,55,29.89,29.82,29.77,10,8,0,14,4,17,0.02,3,Fog-Rain,284
2013-6-11,86,72,57,67,61,56,97,70,36,29.94,29.89,29.81,10,9,2,14,4,17,0.00,1,Rain-Thunderstorm,204
2013-6-12,88,76,65,72,66,62,95,79,52,29.93,29.77,29.62,10,9,1,25,9,40,1.16,3,Rain-Thunderstorm,97
2013-6-13,78,69,60,63,57,52,93,67,41,30.06,29.94,29.67,10,10,7,17,10,23,0.00,3,Rain,12
2013-6-14,77,64,52,60,54,50,91,67,43,30.16,30.08,30.01,10,10,10,12,6,10,0.00,0,,94
2013-6-15,82,70,60,69,62,52,93,78,59,30.06,29.97,29.86,10,9,3,32,7,40,0.13,4,Rain,193
2013-6-16,83,74,65,66,62,54,91,70,38,29.95,29.93,29.89,10,10,10,23,9,30,0.00,3,,268
2013-6-17,87,72,58,63,56,50,96,58,28,29.96,29.93,29.87,10,9,3,15,3,20,0.00,1,Rain,281
2013-6-18,76,66,55,56,53,46,83,65,47,30.09,30.02,29.93,10,10,7,14,8,21,0.00,2,,52
2013-6-19,80,64,50,56,50,45,82,58,36,30.14,30.10,30.07,10,10,10,10,2,,0.00,1,,100
2013-6-20,87,72,57,62,55,47,70,54,34,30.15,30.11,30.05,10,10,10,12,3,,0.00,1,,166
2013-6-21,80,73,66,67,64,58,94,78,60,30.19,30.06,29.94,10,10,1,22,9,32,1.09,2,Rain-Thunderstorm,166
2013-6-22,79,72,65,73,68,62,95,84,72,30.15,30.03,29.95,10,9,2,17,10,26,0.75,2,Rain-Thunderstorm,158
2013-6-23,85,75,65,73,67,64,95,83,64,30.06,30.00,29.91,10,9,5,16,7,22,0.00,1,Rain-Thunderstorm,178
2013-6-24,81,73,65,72,66,63,96,88,66,30.10,29.99,29.90,10,9,3,23,8,34,0.43,3,Rain-Thunderstorm,211
2013-6-25,83,74,65,76,69,64,95,86,73,29.99,29.88,29.82,10,9,4,20,6,28,0.04,3,Rain-Thunderstorm,159
2013-6-26,80,74,69,72,69,66,94,84,66,29.83,29.77,29.74,10,9,2,18,6,20,0.24,3,Rain-Thunderstorm,209
2013-6-27,87,76,66,72,66,56,96,72,40,29.83,29.79,29.73,10,8,2,23,6,30,0.00,1,,288
2013-6-28,80,71,62,64,60,56,93,69,45,29.77,29.70,29.65,10,10,2,20,9,25,0.17,2,Rain,308
2013-6-29,69,64,60,64,61,56,95,88,64,29.81,29.69,29.63,10,9,3,17,6,21,0.36,5,Rain-Thunderstorm,8
2013-6-30,77,67,57,61,55,47,86,66,40,30.02,29.92,29.81,10,10,10,20,10,25,0.00,2,,25